Time;durP1;ratioP1;P1;durP2;ratioP2;P2;SDS_P1;SDS_P2;PMS_P1;PMS_P2;Temp;Humidity;BMP_temperature;BMP_pressure;BME280_temperature;BME280_humidity;BME280_pressure;Samples;Min_cycle;Max_cycle;Signal;HPM_P1;HPM_P2
2022/03/25 00:01:28;;;;;;;;;;;;;;;2.63;42.88;97757.23;110163;1247;70886;-66
2022/03/25 00:03:58;;;;;;;;;;;;;;;2.57;42.24;97757.61;110297;1245;68534;-65
2022/03/25 00:06:28;;;;;;;;;;;;;;;2.48;43.49;97756.19;110325;1244;70007;-66
2022/03/25 00:08:57;;;;;;;;;;;;;;;2.39;43.30;97756.35;110169;1247;59748;-67
2022/03/25 00:11:27;;;;;;;;;;;;;;;2.31;42.10;97756.09;110212;1247;59691;-64
2022/03/25 00:13:56;;;;;;;;;;;;;;;2.26;43.55;97756.80;110133;1247;71504;-66
2022/03/25 00:16:27;;;;;;;;;;;;;;;2.19;42.93;97755.66;110060;1248;67668;-66
2022/03/25 00:18:57;;;;;;;;;;;;;;;2.10;42.26;97758.88;110386;1245;68758;-66
2022/03/25 00:21:26;;;;;;;;;;;;;;;2.01;40.58;97754.20;110427;1246;59740;-67
2022/03/25 00:23:56;;;;;;;;;;;;;;;1.93;41.06;97754.98;110355;1244;59738;-65
2022/03/25 00:26:26;;;;;;;;;;;;;;;1.87;43.21;97755.17;110322;1244;69921;-66
2022/03/25 00:28:57;;;;;;;;;;;;;;;1.81;44.01;97759.65;110151;1245;66875;-67
2022/03/25 00:31:27;;;;;;;;;;;;;;;1.76;43.98;97758.95;110125;1247;68470;-67
2022/03/25 00:33:57;;;;;;;;;;;;;;;1.73;44.89;97762.66;110295;1244;59848;-62
2022/03/25 00:36:27;;;;;;;;;;;;;;;1.73;47.06;97758.89;110385;1246;59698;-66
2022/03/25 00:38:57;;;;;;;;;;;;;;;1.71;46.29;97755.67;110398;1244;71506;-64
2022/03/25 00:41:32;;;;;;;;;;;;;;;1.70;44.77;97755.70;110156;1247;68438;-66
2022/03/25 00:44:05;;;;;;;;;;;;;;;1.69;43.30;97756.95;110091;1247;69470;-64
2022/03/25 00:46:37;;;;;;;;;;;;;;;1.66;43.57;97752.73;110202;1246;59725;-62
2022/03/25 00:49:07;;;;;;;;;;;;;;;1.66;44.25;97750.85;110319;1245;59684;-63
2022/03/25 00:51:37;;;;;;;;;;;;;;;1.69;45.48;97747.65;110313;1245;71545;-64
2022/03/25 00:54:09;;;;;;;;;;;;;;;1.72;44.27;97748.25;110161;1247;68468;-63
2022/03/25 00:56:39;;;;;;;;;;;;;;;1.71;44.70;97747.25;110413;1245;69389;-67
2022/03/25 00:59:09;;;;;;;;;;;;;;;1.70;44.71;97747.48;110064;1244;59727;-66
2022/03/25 01:01:43;;;;;;;;;;;;;;;1.67;45.13;97753.73;110141;1247;60086;-64
2022/03/25 01:04:13;;;;;;;;;;;;;;;1.66;45.17;97754.27;110107;1247;71596;-65
2022/03/25 01:06:43;;;;;;;;;;;;;;;1.61;44.79;97749.65;110222;1244;67849;-66
2022/03/25 01:09:14;;;;;;;;;;;;;;;1.55;44.33;97751.20;110178;1247;68464;-65
2022/03/25 01:11:43;;;;;;;;;;;;;;;1.50;45.31;97751.88;110456;1244;59668;-67
2022/03/25 01:14:13;;;;;;;;;;;;;;;1.46;44.59;97754.21;110124;1247;59752;-64
2022/03/25 01:16:44;;;;;;;;;;;;;;;1.41;44.64;97757.64;110010;1247;71536;-66
2022/03/25 01:19:15;;;;;;;;;;;;;;;1.38;45.52;97755.67;110149;1247;69251;-64
2022/03/25 01:21:45;;;;;;;;;;;;;;;1.35;45.40;97756.98;110431;1244;69513;-66
2022/03/25 01:24:16;;;;;;;;;;;;;;;1.30;45.80;97754.90;110430;1244;59759;-68
2022/03/25 01:26:46;;;;;;;;;;;;;;;1.24;45.77;97753.52;110310;1244;59667;-68
2022/03/25 01:29:16;;;;;;;;;;;;;;;1.19;44.06;97752.47;110166;1247;69793;-65
2022/03/25 01:31:46;;;;;;;;;;;;;;;1.12;45.12;97751.98;110184;1247;68567;-65
2022/03/25 01:34:18;;;;;;;;;;;;;;;1.09;47.30;97752.09;109817;1250;68688;-64
2022/03/25 01:36:49;;;;;;;;;;;;;;;1.06;46.10;97752.67;110095;1247;59750;-65
2022/03/25 01:39:18;;;;;;;;;;;;;;;0.99;46.35;97754.59;110124;1247;59960;-66
2022/03/25 01:41:49;;;;;;;;;;;;;;;0.92;44.83;97757.36;110170;1244;70608;-64
2022/03/25 01:44:29;;;;;;;;;;;;;;;0.86;43.26;97759.10;110444;1244;66778;-66
2022/03/25 01:47:00;;;;;;;;;;;;;;;0.80;47.49;97761.50;110202;1244;68726;-65
2022/03/25 01:49:29;;;;;;;;;;;;;;;0.68;48.90;97766.80;110290;1244;59818;-65
2022/03/25 01:52:01;;;;;;;;;;;;;;;0.52;46.90;97765.88;110408;1244;59675;-66
2022/03/25 01:54:31;;;;;;;;;;;;;;;0.39;46.42;97768.45;110075;1247;70643;-68
2022/03/25 01:57:05;;;;;;;;;;;;;;;0.27;49.23;97779.05;110352;1244;68507;-66
2022/03/25 01:59:34;;;;;;;;;;;;;;;0.19;49.57;97779.41;110026;1247;69393;-64
2022/03/25 02:02:06;;;;;;;;;;;;;;;0.15;48.73;97779.02;110051;1247;59706;-65
2022/03/25 02:04:37;;;;;;;;;;;;;;;0.11;48.17;97783.57;110065;1247;59739;-66
2022/03/25 02:07:11;;;;;;;;;;;;;;;0.10;49.73;97786.16;110056;1247;69942;-64
2022/03/25 02:09:40;;;;;;;;;;;;;;;0.09;48.07;97788.94;110113;1247;68529;-66
2022/03/25 02:12:13;;;;;;;;;;;;;;;0.07;49.07;97788.48;110084;1247;69061;-64
2022/03/25 02:14:43;;;;;;;;;;;;;;;0.06;50.46;97788.84;110216;1247;59818;-65
2022/03/25 02:17:13;;;;;;;;;;;;;;;0.04;49.67;97788.90;110329;1244;59742;-66
2022/03/25 02:19:42;;;;;;;;;;;;;;;-0.03;50.28;97786.13;110088;1247;71534;-65
2022/03/25 02:22:15;;;;;;;;;;;;;;;-0.07;51.03;97793.77;110096;1247;67840;-67
2022/03/25 02:24:45;;;;;;;;;;;;;;;-0.13;52.33;97797.02;110140;1247;69211;-68
2022/03/25 02:27:18;;;;;;;;;;;;;;;-0.21;52.21;97798.07;109919;1246;59735;-66
2022/03/25 02:29:48;;;;;;;;;;;;;;;-0.29;52.24;97797.90;110121;1246;59702;-66
2022/03/25 02:32:20;;;;;;;;;;;;;;;-0.35;52.96;97800.77;109988;1247;71398;-66
2022/03/25 02:34:50;;;;;;;;;;;;;;;-0.36;53.66;97801.33;109910;1247;68584;-65
2022/03/25 02:37:21;;;;;;;;;;;;;;;-0.39;52.94;97804.13;109999;1247;68670;-66
2022/03/25 02:39:54;;;;;;;;;;;;;;;-0.44;52.00;97799.10;110055;1247;59660;-65
2022/03/25 02:42:24;;;;;;;;;;;;;;;-0.48;53.73;97800.40;109959;1247;59678;-68
2022/03/25 02:44:53;;;;;;;;;;;;;;;-0.51;52.60;97802.20;109953;1247;70786;-66
2022/03/25 02:47:23;;;;;;;;;;;;;;;-0.55;52.43;97803.29;109929;1247;69017;-63
2022/03/25 02:49:53;;;;;;;;;;;;;;;-0.55;53.12;97806.04;110059;1247;69219;-66
2022/03/25 02:52:22;;;;;;;;;;;;;;;-0.58;52.69;97806.27;109996;1247;59808;-65
2022/03/25 02:54:53;;;;;;;;;;;;;;;-0.57;54.56;97811.19;110046;1247;59731;-67
2022/03/25 02:57:22;;;;;;;;;;;;;;;-0.56;53.74;97812.89;109562;1247;644544;-63
2022/03/25 02:59:52;;;;;;;;;;;;;;;-0.58;52.99;97811.90;110031;1247;68012;-63
2022/03/25 03:02:23;;;;;;;;;;;;;;;-0.59;54.22;97815.19;110001;1247;69290;-61
2022/03/25 03:04:53;;;;;;;;;;;;;;;-0.62;52.66;97815.42;110136;1247;59750;-65
2022/03/25 03:07:22;;;;;;;;;;;;;;;-0.70;50.74;97813.19;110185;1247;59761;-63
2022/03/25 03:09:52;;;;;;;;;;;;;;;-0.78;53.34;97814.40;110060;1247;70849;-63
2022/03/25 03:12:22;;;;;;;;;;;;;;;-0.85;55.47;97823.27;110179;1247;68706;-65
2022/03/25 03:14:52;;;;;;;;;;;;;;;-0.94;54.99;97816.45;110146;1247;67639;-67
2022/03/25 03:17:21;;;;;;;;;;;;;;;-1.02;54.30;97815.25;110102;1247;59764;-65
2022/03/25 03:19:51;;;;;;;;;;;;;;;-1.00;56.30;97818.63;110067;1247;59676;-65
2022/03/25 03:22:22;;;;;;;;;;;;;;;-1.00;56.02;97823.42;110091;1247;71638;-67
2022/03/25 03:24:51;;;;;;;;;;;;;;;-1.04;55.67;97820.39;110062;1247;67956;-63
2022/03/25 03:27:21;;;;;;;;;;;;;;;-1.08;55.55;97818.44;110089;1247;68598;-65
2022/03/25 03:29:51;;;;;;;;;;;;;;;-1.13;54.59;97815.97;110153;1247;59742;-65
2022/03/25 03:32:20;;;;;;;;;;;;;;;-1.18;54.64;97814.54;110028;1247;59726;-66
2022/03/25 03:34:50;;;;;;;;;;;;;;;-1.24;52.98;97813.95;110172;1246;71504;-67
2022/03/25 03:37:21;;;;;;;;;;;;;;;-1.30;52.48;97813.91;110088;1247;68384;-66
2022/03/25 03:39:50;;;;;;;;;;;;;;;-1.37;52.07;97817.96;110076;1247;69145;-66
2022/03/25 03:42:20;;;;;;;;;;;;;;;-1.42;51.86;97813.63;110126;1247;59671;-65
2022/03/25 03:44:49;;;;;;;;;;;;;;;-1.44;51.67;97814.86;110167;1245;59727;-66
2022/03/25 03:47:19;;;;;;;;;;;;;;;-1.47;50.30;97813.04;110226;1247;71357;-62
2022/03/25 03:49:48;;;;;;;;;;;;;;;-1.48;55.91;97815.11;110231;1245;68653;-64
2022/03/25 03:52:17;;;;;;;;;;;;;;;-1.55;57.18;97816.75;109955;1248;67783;-65
2022/03/25 03:54:47;;;;;;;;;;;;;;;-1.64;56.24;97815.89;110099;1247;59756;-67
2022/03/25 03:57:15;;;;;;;;;;;;;;;-1.73;53.50;97811.95;110100;1246;59782;-66
2022/03/25 03:59:45;;;;;;;;;;;;;;;-1.80;53.61;97811.56;110145;1247;71531;-66
2022/03/25 04:02:14;;;;;;;;;;;;;;;-1.88;54.13;97812.04;110116;1247;67945;-66
2022/03/25 04:04:44;;;;;;;;;;;;;;;-1.92;58.25;97816.21;110082;1246;69385;-66
2022/03/25 04:07:15;;;;;;;;;;;;;;;-1.99;58.69;97816.51;110173;1247;59810;-66
2022/03/25 04:09:45;;;;;;;;;;;;;;;-2.05;56.14;97811.81;110097;1246;59757;-63
2022/03/25 04:12:14;;;;;;;;;;;;;;;-2.10;58.63;97815.13;110122;1247;70912;-64
2022/03/25 04:14:44;;;;;;;;;;;;;;;-2.16;58.63;97819.48;110167;1246;68606;-63
2022/03/25 04:17:15;;;;;;;;;;;;;;;-2.20;60.44;97820.59;110076;1247;68707;-63
2022/03/25 04:19:43;;;;;;;;;;;;;;;-2.26;60.45;97818.80;110177;1244;59678;-66
2022/03/25 04:22:13;;;;;;;;;;;;;;;-2.30;60.68;97819.71;110182;1247;59681;-66
2022/03/25 04:24:42;;;;;;;;;;;;;;;-2.35;59.14;97822.52;110169;1247;71044;-66
2022/03/25 04:27:11;;;;;;;;;;;;;;;-2.38;57.58;97823.77;110069;1245;67633;-66
2022/03/25 04:29:41;;;;;;;;;;;;;;;-2.41;54.27;97822.27;110122;1247;69107;-65
2022/03/25 04:32:10;;;;;;;;;;;;;;;-2.42;56.54;97825.17;110402;1244;59656;-66
2022/03/25 04:34:40;;;;;;;;;;;;;;;-2.39;57.87;97826.68;110162;1247;59750;-66
2022/03/25 04:37:10;;;;;;;;;;;;;;;-2.35;58.57;97831.06;110065;1244;70730;-67
2022/03/25 04:39:39;;;;;;;;;;;;;;;-2.34;58.74;97831.23;110180;1246;67811;-66
2022/03/25 04:42:09;;;;;;;;;;;;;;;-2.32;60.65;97829.14;110234;1245;68442;-66
2022/03/25 04:44:38;;;;;;;;;;;;;;;-2.28;60.31;97832.15;110392;1243;59774;-63
2022/03/25 04:47:08;;;;;;;;;;;;;;;-2.24;57.04;97830.91;110205;1245;59712;-63
2022/03/25 04:49:38;;;;;;;;;;;;;;;-2.15;58.10;97833.50;110408;1244;71689;-66
2022/03/25 04:52:07;;;;;;;;;;;;;;;-2.07;58.57;97832.86;110240;1246;66691;-68
2022/03/25 04:54:36;;;;;;;;;;;;;;;-1.97;59.13;97838.67;110198;1244;68683;-65
2022/03/25 04:57:05;;;;;;;;;;;;;;;-1.92;59.23;97843.38;110242;1244;59674;-63
2022/03/25 04:59:35;;;;;;;;;;;;;;;-1.81;57.72;97840.64;110173;1245;59745;-63
2022/03/25 05:02:04;;;;;;;;;;;;;;;-1.66;58.51;97843.97;110328;1245;70814;-61
2022/03/25 05:04:34;;;;;;;;;;;;;;;-1.51;57.73;97850.05;110201;1244;68566;-62
2022/03/25 05:07:03;;;;;;;;;;;;;;;-1.36;56.48;97846.52;110133;1245;68950;-63
2022/03/25 05:09:33;;;;;;;;;;;;;;;-1.13;56.38;97847.61;110213;1245;59757;-65
2022/03/25 05:12:02;;;;;;;;;;;;;;;-0.92;56.26;97850.81;110235;1244;59711;-62
2022/03/25 05:14:32;;;;;;;;;;;;;;;-0.76;55.74;97851.65;110240;1244;71581;-64
2022/03/25 05:17:03;;;;;;;;;;;;;;;-0.55;55.30;97852.42;110343;1244;68396;-65
2022/03/25 05:19:32;;;;;;;;;;;;;;;-0.39;54.48;97853.79;110211;1244;68680;-66
2022/03/25 05:22:07;;;;;;;;;;;;;;;-0.23;53.93;97854.47;110263;1244;59668;-62
2022/03/25 05:24:36;;;;;;;;;;;;;;;0.06;53.61;97856.54;110220;1244;59681;-63
2022/03/25 05:27:07;;;;;;;;;;;;;;;0.22;53.17;97857.52;110300;1244;70582;-63
2022/03/25 05:29:36;;;;;;;;;;;;;;;0.32;52.91;97856.75;110260;1244;67823;-66
2022/03/25 05:32:06;;;;;;;;;;;;;;;0.54;52.21;97859.30;110309;1244;68912;-66
2022/03/25 05:34:35;;;;;;;;;;;;;;;0.72;51.84;97861.56;110098;1245;59753;-63
2022/03/25 05:37:04;;;;;;;;;;;;;;;0.81;50.98;97862.87;110175;1244;59678;-65
2022/03/25 05:39:33;;;;;;;;;;;;;;;0.89;50.67;97863.87;110130;1247;72160;-64
2022/03/25 05:42:02;;;;;;;;;;;;;;;1.06;50.47;97867.52;110128;1244;68616;-63
2022/03/25 05:44:31;;;;;;;;;;;;;;;1.08;50.30;97862.14;110176;1245;68476;-65
2022/03/25 05:47:00;;;;;;;;;;;;;;;1.11;50.01;97862.76;110390;1244;59751;-62
2022/03/25 05:49:30;;;;;;;;;;;;;;;1.38;49.98;97864.04;110231;1245;59752;-62
2022/03/25 05:51:59;;;;;;;;;;;;;;;1.70;49.16;97857.09;110331;1244;70408;-64
2022/03/25 05:54:28;;;;;;;;;;;;;;;1.79;48.65;97859.21;110354;1244;68645;-67
2022/03/25 05:56:57;;;;;;;;;;;;;;;2.20;48.91;97858.97;110325;1244;69537;-63
2022/03/25 05:59:27;;;;;;;;;;;;;;;2.61;47.97;97862.27;110369;1243;59694;-65
2022/03/25 06:01:56;;;;;;;;;;;;;;;3.03;47.56;97858.90;110343;1244;59694;-65
2022/03/25 06:04:26;;;;;;;;;;;;;;;3.36;46.60;97865.13;110162;1244;72188;-66
2022/03/25 06:06:54;;;;;;;;;;;;;;;3.65;45.30;97862.00;110269;1244;67816;-67
2022/03/25 06:09:23;;;;;;;;;;;;;;;3.93;45.62;97862.95;110131;1244;68123;-64
2022/03/25 06:11:53;;;;;;;;;;;;;;;4.27;44.82;97861.83;110431;1244;60090;-65
2022/03/25 06:14:22;;;;;;;;;;;;;;;4.34;42.90;97862.91;110409;1244;59751;-64
2022/03/25 06:16:51;;;;;;;;;;;;;;;4.24;42.93;97865.88;110154;1245;70859;-64
2022/03/25 06:19:21;;;;;;;;;;;;;;;4.54;43.04;97863.66;110311;1244;68596;-64
2022/03/25 06:21:50;;;;;;;;;;;;;;;4.69;42.43;97862.00;110388;1244;68628;-65
2022/03/25 06:24:19;;;;;;;;;;;;;;;4.91;42.31;97857.41;110369;1244;59716;-69
2022/03/25 06:26:48;;;;;;;;;;;;;;;4.75;42.40;97859.51;110393;1244;59655;-64
2022/03/25 06:29:17;;;;;;;;;;;;;;;5.00;42.18;97854.10;110191;1244;70806;-66
2022/03/25 06:31:46;;;;;;;;;;;;;;;5.28;41.50;97859.11;110351;1244;68554;-65
2022/03/25 06:34:20;;;;;;;;;;;;;;;5.55;40.96;97854.07;110239;1244;69405;-65
2022/03/25 06:36:50;;;;;;;;;;;;;;;5.79;40.02;97860.95;110119;1245;59733;-63
2022/03/25 06:39:19;;;;;;;;;;;;;;;6.06;39.99;97860.70;110315;1244;59685;-65
2022/03/25 06:41:48;;;;;;;;;;;;;;;6.24;38.97;97862.11;110113;1244;71483;-65
2022/03/25 06:44:17;;;;;;;;;;;;;;;6.22;38.90;97860.84;110238;1244;67852;-64
2022/03/25 06:46:47;;;;;;;;;;;;;;;6.47;38.64;97860.84;110293;1244;69430;-63
2022/03/25 06:49:17;;;;;;;;;;;;;;;6.52;38.42;97858.66;110342;1245;59625;-64
2022/03/25 06:51:46;;;;;;;;;;;;;;;6.80;38.39;97855.37;110275;1245;59716;-65
2022/03/25 06:54:15;;;;;;;;;;;;;;;7.12;37.99;97854.95;110287;1245;71693;-65
2022/03/25 06:56:44;;;;;;;;;;;;;;;7.50;37.06;97847.77;110238;1244;67535;-64
2022/03/25 06:59:13;;;;;;;;;;;;;;;7.95;36.76;97846.33;110275;1244;69875;-65
2022/03/25 07:01:44;;;;;;;;;;;;;;;8.38;35.90;97844.65;110117;1245;59705;-64
2022/03/25 07:04:13;;;;;;;;;;;;;;;8.83;35.37;97844.79;110341;1244;59682;-64
2022/03/25 07:06:47;;;;;;;;;;;;;;;8.94;34.30;97839.60;110344;1244;70879;-64
2022/03/25 07:09:16;;;;;;;;;;;;;;;9.41;33.49;97840.30;110153;1244;68613;-66
2022/03/25 07:11:45;;;;;;;;;;;;;;;9.66;33.37;97838.75;110164;1244;69509;-64
2022/03/25 07:14:14;;;;;;;;;;;;;;;9.26;32.85;97837.91;110361;1244;59754;-66
2022/03/25 07:16:43;;;;;;;;;;;;;;;9.68;33.09;97842.25;110403;1244;59698;-66
2022/03/25 07:19:12;;;;;;;;;;;;;;;10.28;32.44;97840.37;110404;1244;70813;-66
2022/03/25 07:21:40;;;;;;;;;;;;;;;9.95;32.16;97841.23;110343;1244;68529;-65
2022/03/25 07:24:11;;;;;;;;;;;;;;;10.36;32.41;97842.48;110345;1244;69421;-66
2022/03/25 07:26:40;;;;;;;;;;;;;;;10.51;31.89;97838.02;110335;1244;59748;-66
2022/03/25 07:29:11;;;;;;;;;;;;;;;10.15;32.14;97834.42;110202;1244;59672;-68
2022/03/25 07:31:40;;;;;;;;;;;;;;;10.69;32.00;97832.85;110380;1244;71541;-66
2022/03/25 07:34:09;;;;;;;;;;;;;;;10.95;31.27;97836.65;110190;1245;68418;-66
2022/03/25 07:36:39;;;;;;;;;;;;;;;10.94;31.02;97830.98;110138;1245;69434;-66
2022/03/25 07:39:08;;;;;;;;;;;;;;;11.35;30.77;97831.83;110273;1244;59668;-66
2022/03/25 07:41:37;;;;;;;;;;;;;;;11.65;30.31;97829.76;110146;1244;59731;-65
2022/03/25 07:44:06;;;;;;;;;;;;;;;12.09;30.00;97827.14;110048;1245;71445;-66
2022/03/25 07:46:35;;;;;;;;;;;;;;;12.52;29.54;97827.53;110316;1244;67990;-64
2022/03/25 07:49:04;;;;;;;;;;;;;;;11.55;30.19;97815.80;110219;1244;68712;-64
2022/03/25 07:51:33;;;;;;;;;;;;;;;12.26;29.60;97816.45;110354;1244;59691;-64
2022/03/25 07:54:02;;;;;;;;;;;;;;;11.65;29.87;97810.56;110066;1247;60081;-67
2022/03/25 07:56:31;;;;;;;;;;;;;;;12.19;30.01;97814.56;110247;1244;71497;-65
2022/03/25 07:59:03;;;;;;;;;;;;;;;12.67;29.69;97812.08;110324;1245;68601;-65
2022/03/25 08:01:32;;;;;;;;;;;;;;;13.53;28.39;97806.70;110157;1244;69464;-67
2022/03/25 08:04:02;;;;;;;;;;;;;;;13.87;27.80;97809.95;110436;1244;59761;-65
2022/03/25 08:06:31;;;;;;;;;;;;;;;14.35;27.31;97806.41;110434;1244;59731;-66
2022/03/25 08:09:01;;;;;;;;;;;;;;;14.78;26.92;97805.19;110406;1244;70746;-64
2022/03/25 08:11:30;;;;;;;;;;;;;;;15.06;26.49;97799.83;110269;1244;68458;-64
2022/03/25 08:13:59;;;;;;;;;;;;;;;15.13;26.13;97802.95;110145;1247;68482;-64
2022/03/25 08:16:30;;;;;;;;;;;;;;;15.47;25.35;97799.86;110155;1245;59667;-64
2022/03/25 08:18:59;;;;;;;;;;;;;;;15.70;24.77;97806.61;110379;1244;59671;-63
2022/03/25 08:21:29;;;;;;;;;;;;;;;15.07;25.62;97803.44;110370;1244;70758;-66
2022/03/25 08:29:36;;;;;;;;;;;;;;;15.71;24.96;97785.11;110337;1244;59721;-63
2022/03/25 08:32:05;;;;;;;;;;;;;;;16.20;24.48;97788.86;110428;1244;59681;-63
2022/03/25 08:34:34;;;;;;;;;;;;;;;15.51;24.35;97779.11;110463;1244;71602;-65
2022/03/25 08:37:03;;;;;;;;;;;;;;;15.72;24.51;97779.78;110446;1244;67708;-67
2022/03/25 08:39:34;;;;;;;;;;;;;;;16.36;23.71;97775.79;110128;1245;68753;-66
2022/03/25 08:42:03;;;;;;;;;;;;;;;16.65;23.53;97775.77;110170;1244;59682;-67
2022/03/25 08:44:33;;;;;;;;;;;;;;;16.27;23.00;97774.98;110126;1247;60153;-66
2022/03/25 08:47:03;;;;;;;;;;;;;;;16.54;23.82;97770.24;110477;1244;70825;-65
2022/03/25 08:49:33;;;;;;;;;;;;;;;17.09;23.12;97763.17;110404;1244;68573;-66
2022/03/25 08:52:02;;;;;;;;;;;;;;;17.38;22.52;97760.73;110488;1244;68845;-67
2022/03/25 08:54:32;;;;;;;;;;;;;;;17.45;22.00;97756.34;110461;1244;59688;-67
2022/03/25 08:57:02;;;;;;;;;;;;;;;17.10;21.58;97756.48;110273;1244;59797;-67
2022/03/25 08:59:31;;;;;;;;;;;;;;;15.63;22.46;97752.58;110473;1244;71553;-64
2022/03/25 09:02:02;;;;;;;;;;;;;;;16.40;22.15;97754.90;110458;1244;68589;-66
2022/03/25 09:04:31;;;;;;;;;;;;;;;16.72;22.27;97754.74;110358;1244;69470;-65
2022/03/25 09:07:00;;;;;;;;;;;;;;;17.38;21.77;97751.39;110487;1244;59679;-67
2022/03/25 09:09:30;;;;;;;;;;;;;;;17.37;21.46;97748.69;110375;1244;59654;-63
2022/03/25 09:12:00;;;;;;;;;;;;;;;17.59;20.58;97749.56;110443;1244;70754;-65
2022/03/25 09:14:35;;;;;;;;;;;;;;;18.00;19.84;97749.45;110146;1245;68593;-65
2022/03/25 09:17:04;;;;;;;;;;;;;;;18.22;19.12;97749.82;110186;1245;69442;-64
2022/03/25 09:19:34;;;;;;;;;;;;;;;18.13;19.38;97752.81;110462;1244;59683;-66
2022/03/25 09:22:06;;;;;;;;;;;;;;;18.29;19.09;97748.45;110470;1244;59672;-66
2022/03/25 09:24:35;;;;;;;;;;;;;;;18.00;18.87;97754.40;110434;1244;70608;-64
2022/03/25 09:27:05;;;;;;;;;;;;;;;17.97;19.06;97754.77;110457;1244;68611;-68
2022/03/25 09:29:34;;;;;;;;;;;;;;;17.72;19.03;97750.41;110190;1244;69455;-65
2022/03/25 09:32:03;;;;;;;;;;;;;;;17.69;19.01;97747.72;110409;1244;59800;-67
2022/03/25 09:37:36;;;;;;;;;;;;;;;17.79;19.19;97739.39;110427;1242;70831;-67
2022/03/25 09:40:06;;;;;;;;;;;;;;;18.03;18.88;97754.47;110141;1244;68623;-66
2022/03/25 09:42:36;;;;;;;;;;;;;;;17.56;19.07;97749.02;110356;1244;68657;-66
2022/03/25 09:45:06;;;;;;;;;;;;;;;17.03;19.39;97747.28;110202;1247;59679;-65
2022/03/25 09:47:36;;;;;;;;;;;;;;;16.36;19.68;97748.38;110465;1244;59666;-65
2022/03/25 09:50:07;;;;;;;;;;;;;;;15.88;20.19;97749.51;110369;1244;70794;-63
2022/03/25 09:52:36;;;;;;;;;;;;;;;15.32;20.72;97749.19;110137;1244;68580;-61
2022/03/25 09:55:26;;;;;;;;;;;;;;;15.67;20.51;97762.45;110345;1244;69978;-61
2022/03/25 09:57:55;;;;;;;;;;;;;;;15.39;20.47;97758.86;110393;1244;59724;-67
2022/03/25 10:00:25;;;;;;;;;;;;;;;14.70;21.19;97763.09;110473;1244;59677;-65
2022/03/25 10:02:54;;;;;;;;;;;;;;;14.53;21.46;97768.14;110429;1244;71606;-64
2022/03/25 10:05:23;;;;;;;;;;;;;;;14.75;21.44;97770.73;110452;1244;67811;-62
2022/03/25 10:07:55;;;;;;;;;;;;;;;15.11;21.71;97759.77;110421;1244;69494;-65
2022/03/25 10:10:25;;;;;;;;;;;;;;;14.91;21.33;97759.67;110440;1244;59689;-66
2022/03/25 10:13:02;;;;;;;;;;;;;;;14.73;21.46;97765.60;110123;1247;59682;-65
2022/03/25 10:15:33;;;;;;;;;;;;;;;14.66;22.10;97767.58;110395;1244;71592;-68
2022/03/25 10:18:03;;;;;;;;;;;;;;;15.44;21.37;97764.45;110462;1244;68500;-67
2022/03/25 10:20:39;;;;;;;;;;;;;;;16.29;20.80;97771.55;110319;1244;68640;-65
2022/03/25 10:23:09;;;;;;;;;;;;;;;16.84;19.85;97763.00;110166;1244;59661;-65
2022/03/25 10:25:47;;;;;;;;;;;;;;;16.61;20.16;97768.95;110432;1244;59631;-65
2022/03/25 10:28:36;;;;;;;;;;;;;;;16.01;20.62;97764.67;110309;1244;71567;-66
2022/03/25 10:31:07;;;;;;;;;;;;;;;14.33;22.32;97765.95;110358;1244;69325;-66
2022/03/25 10:33:42;;;;;;;;;;;;;;;13.89;22.64;97770.26;110381;1244;69082;-64
2022/03/25 10:36:15;;;;;;;;;;;;;;;13.47;23.33;97777.06;110157;1244;59754;-66
2022/03/25 10:38:53;;;;;;;;;;;;;;;13.33;23.62;97781.48;110105;1247;59727;-66
2022/03/25 10:41:36;;;;;;;;;;;;;;;13.17;23.71;97778.33;110130;1244;70973;-63
2022/03/25 10:44:05;;;;;;;;;;;;;;;12.88;24.32;97779.70;110389;1244;68599;-64
2022/03/25 10:46:42;;;;;;;;;;;;;;;12.57;24.99;97779.37;110166;1244;68668;-68
2022/03/25 10:49:13;;;;;;;;;;;;;;;12.28;25.31;97788.02;110191;1244;59786;-63
2022/03/25 10:51:42;;;;;;;;;;;;;;;12.26;25.61;97788.51;110189;1244;59684;-66
2022/03/25 10:54:12;;;;;;;;;;;;;;;12.53;25.20;97784.73;110199;1244;71594;-64
2022/03/25 10:56:48;;;;;;;;;;;;;;;12.70;24.99;97781.73;110418;1244;68341;-66
2022/03/25 10:59:21;;;;;;;;;;;;;;;12.86;24.95;97785.64;110430;1244;68719;-67
2022/03/25 11:01:52;;;;;;;;;;;;;;;13.00;25.20;97790.17;110375;1244;59738;-65
2022/03/25 11:04:22;;;;;;;;;;;;;;;13.21;24.36;97786.62;110443;1243;59701;-66
2022/03/25 11:06:52;;;;;;;;;;;;;;;13.09;24.31;97784.90;110433;1244;70963;-66
2022/03/25 11:09:22;;;;;;;;;;;;;;;12.97;24.34;97784.06;110069;1246;67989;-67
2022/03/25 11:11:57;;;;;;;;;;;;;;;12.73;24.23;97785.52;110438;1244;69770;-64
2022/03/25 11:14:26;;;;;;;;;;;;;;;12.71;24.66;97789.20;110492;1244;59691;-65
2022/03/25 11:16:57;;;;;;;;;;;;;;;12.51;25.02;97795.77;110382;1244;59613;-66
2022/03/25 11:19:27;;;;;;;;;;;;;;;12.41;25.15;97795.67;110209;1244;71241;-63
2022/03/25 11:21:59;;;;;;;;;;;;;;;12.34;25.19;97792.11;110440;1245;68562;-64
2022/03/25 11:24:36;;;;;;;;;;;;;;;12.41;24.90;97793.90;110418;1244;68600;-62
2022/03/25 11:27:15;;;;;;;;;;;;;;;12.55;24.63;97788.30;110343;1244;59739;-63
2022/03/25 11:29:45;;;;;;;;;;;;;;;12.43;24.70;97793.39;110410;1244;59691;-63
2022/03/25 11:32:15;;;;;;;;;;;;;;;12.30;24.45;97794.01;110447;1244;71936;-65
2022/03/25 11:34:46;;;;;;;;;;;;;;;12.27;24.46;97797.92;110454;1244;67619;-67
2022/03/25 11:37:20;;;;;;;;;;;;;;;12.14;24.31;97798.50;110166;1245;68999;-66
2022/03/25 11:40:12;;;;;;;;;;;;;;;11.96;24.07;97802.44;110417;1244;59596;-65
2022/03/25 11:42:41;;;;;;;;;;;;;;;11.98;24.21;97805.05;110432;1244;59686;-65
2022/03/25 11:45:31;;;;;;;;;;;;;;;11.95;24.05;97806.00;110167;1244;71554;-67
2022/03/25 11:48:00;;;;;;;;;;;;;;;11.99;24.01;97805.00;110472;1244;68447;-65
2022/03/25 11:50:30;;;;;;;;;;;;;;;12.09;23.97;97809.87;110376;1244;68792;-65
2022/03/25 11:53:27;;;;;;;;;;;;;;;12.13;24.98;97818.80;110447;1244;59652;-66
2022/03/25 11:56:06;;;;;;;;;;;;;;;12.13;25.75;97823.52;110170;1247;59671;-64
2022/03/25 11:58:56;;;;;;;;;;;;;;;12.02;26.31;97829.41;110411;1244;70911;-64
2022/03/25 12:01:25;;;;;;;;;;;;;;;12.08;26.11;97831.06;110457;1244;69210;-65
2022/03/25 12:03:55;;;;;;;;;;;;;;;12.62;25.55;97831.45;110131;1245;69697;-64
2022/03/25 12:06:29;;;;;;;;;;;;;;;13.46;24.97;97828.59;110157;1245;59680;-66
2022/03/25 12:09:04;;;;;;;;;;;;;;;14.18;24.14;97830.80;110448;1244;59627;-65
2022/03/25 12:11:51;;;;;;;;;;;;;;;14.90;23.07;97829.98;110437;1244;70760;-64
2022/03/25 12:14:32;;;;;;;;;;;;;;;15.25;22.42;97833.16;110439;1244;68571;-64
2022/03/25 12:17:02;;;;;;;;;;;;;;;15.74;21.54;97831.81;110140;1247;69365;-63
2022/03/25 12:19:38;;;;;;;;;;;;;;;15.78;21.02;97828.05;110169;1246;59773;-65
2022/03/25 12:22:19;;;;;;;;;;;;;;;16.45;20.44;97838.30;110154;1247;59630;-66
2022/03/25 12:24:52;;;;;;;;;;;;;;;16.84;20.13;97845.91;110127;1247;70358;-65
2022/03/25 12:27:23;;;;;;;;;;;;;;;17.19;19.30;97843.70;110150;1247;68523;-63
2022/03/25 12:29:54;;;;;;;;;;;;;;;17.46;19.24;97846.42;110135;1246;69603;-64
2022/03/25 12:32:24;;;;;;;;;;;;;;;18.20;18.70;97845.08;110102;1247;59732;-65
2022/03/25 12:34:53;;;;;;;;;;;;;;;18.85;18.27;97839.50;110143;1247;59753;-67
2022/03/25 12:37:28;;;;;;;;;;;;;;;19.46;16.90;97840.52;110135;1247;71509;-66
2022/03/25 12:40:17;;;;;;;;;;;;;;;19.60;16.71;97846.46;110139;1245;67820;-66
2022/03/25 12:42:50;;;;;;;;;;;;;;;19.87;16.16;97842.27;110063;1247;69766;-66
2022/03/25 12:45:29;;;;;;;;;;;;;;;19.60;16.45;97841.73;110133;1247;59744;-66
2022/03/25 12:48:07;;;;;;;;;;;;;;;20.29;16.24;97841.58;110157;1247;59683;-67
2022/03/25 12:50:36;;;;;;;;;;;;;;;19.86;16.04;97836.48;110073;1247;71754;-68
2022/03/25 12:53:05;;;;;;;;;;;;;;;19.47;15.50;97830.80;110141;1247;68431;-66
2022/03/25 12:55:34;;;;;;;;;;;;;;;19.33;15.66;97829.59;110090;1247;69373;-68
2022/03/25 12:58:13;;;;;;;;;;;;;;;19.34;15.74;97830.23;110082;1247;59687;-60
2022/03/25 13:00:46;;;;;;;;;;;;;;;19.63;15.67;97833.39;110149;1247;59697;-64
2022/03/25 13:03:17;;;;;;;;;;;;;;;19.86;15.00;97830.46;110069;1247;70806;-62
2022/03/25 13:05:46;;;;;;;;;;;;;;;19.92;15.29;97833.97;110142;1247;68620;-66
2022/03/25 13:08:15;;;;;;;;;;;;;;;19.76;15.34;97836.45;110117;1247;68677;-66